sensor_id;sensor_type;location;lat;lon;timestamp;P1;durP1;ratioP1;P2;durP2;ratioP2
68310;SDS011;55157;51.036;17.058;2023-04-25T00:01:35;6.20;;;1.52;;
68310;SDS011;55157;51.036;17.058;2023-04-25T00:04:01;1.50;;;1.10;;
68310;SDS011;55157;51.036;17.058;2023-04-25T00:06:26;4.00;;;1.30;;
68310;SDS011;55157;51.036;17.058;2023-04-25T00:08:51;3.88;;;1.20;;
68310;SDS011;55157;51.036;17.058;2023-04-25T00:11:16;1.75;;;1.10;;
68310;SDS011;55157;51.036;17.058;2023-04-25T00:13:42;2.33;;;1.27;;
68310;SDS011;55157;51.036;17.058;2023-04-25T00:16:08;2.35;;;1.10;;
68310;SDS011;55157;51.036;17.058;2023-04-25T00:18:34;4.50;;;1.55;;
68310;SDS011;55157;51.036;17.058;2023-04-25T00:20:59;2.17;;;1.75;;
68310;SDS011;55157;51.036;17.058;2023-04-25T00:23:24;2.42;;;1.15;;
68310;SDS011;55157;51.036;17.058;2023-04-25T00:25:49;1.52;;;1.20;;
68310;SDS011;55157;51.036;17.058;2023-04-25T00:28:16;3.63;;;1.13;;
68310;SDS011;55157;51.036;17.058;2023-04-25T00:30:41;1.70;;;1.10;;
68310;SDS011;55157;51.036;17.058;2023-04-25T00:33:08;3.28;;;1.25;;
68310;SDS011;55157;51.036;17.058;2023-04-25T00:35:34;2.78;;;1.38;;
68310;SDS011;55157;51.036;17.058;2023-04-25T00:37:59;2.05;;;1.13;;
68310;SDS011;55157;51.036;17.058;2023-04-25T00:40:24;2.33;;;1.30;;
68310;SDS011;55157;51.036;17.058;2023-04-25T00:42:50;7.13;;;1.95;;
68310;SDS011;55157;51.036;17.058;2023-04-25T00:45:16;1.60;;;1.15;;
68310;SDS011;55157;51.036;17.058;2023-04-25T00:47:42;7.53;;;1.45;;
68310;SDS011;55157;51.036;17.058;2023-04-25T00:50:09;2.33;;;1.65;;
68310;SDS011;55157;51.036;17.058;2023-04-25T00:52:34;4.35;;;1.80;;
68310;SDS011;55157;51.036;17.058;2023-04-25T00:55:00;2.92;;;1.45;;
68310;SDS011;55157;51.036;17.058;2023-04-25T00:57:25;2.20;;;2.00;;
68310;SDS011;55157;51.036;17.058;2023-04-25T00:59:51;4.28;;;1.80;;
68310;SDS011;55157;51.036;17.058;2023-04-25T01:02:17;3.25;;;2.13;;
68310;SDS011;55157;51.036;17.058;2023-04-25T01:04:43;2.15;;;1.50;;
68310;SDS011;55157;51.036;17.058;2023-04-25T01:07:10;3.65;;;2.00;;
68310;SDS011;55157;51.036;17.058;2023-04-25T01:09:35;4.32;;;2.05;;
68310;SDS011;55157;51.036;17.058;2023-04-25T01:12:00;4.78;;;2.38;;
68310;SDS011;55157;51.036;17.058;2023-04-25T01:14:26;4.05;;;2.20;;
68310;SDS011;55157;51.036;17.058;2023-04-25T01:16:51;3.92;;;2.30;;
68310;SDS011;55157;51.036;17.058;2023-04-25T01:19:16;12.80;;;3.30;;
68310;SDS011;55157;51.036;17.058;2023-04-25T01:21:43;5.85;;;2.10;;
68310;SDS011;55157;51.036;17.058;2023-04-25T01:24:09;8.80;;;2.70;;
68310;SDS011;55157;51.036;17.058;2023-04-25T01:26:34;3.40;;;2.65;;
68310;SDS011;55157;51.036;17.058;2023-04-25T01:29:00;6.00;;;2.65;;
68310;SDS011;55157;51.036;17.058;2023-04-25T01:31:25;5.00;;;2.67;;
68310;SDS011;55157;51.036;17.058;2023-04-25T01:33:51;3.50;;;2.53;;
68310;SDS011;55157;51.036;17.058;2023-04-25T01:36:16;5.53;;;2.35;;
68310;SDS011;55157;51.036;17.058;2023-04-25T01:38:44;5.10;;;2.85;;
68310;SDS011;55157;51.036;17.058;2023-04-25T01:41:09;4.10;;;2.25;;
68310;SDS011;55157;51.036;17.058;2023-04-25T01:43:34;4.57;;;2.20;;
68310;SDS011;55157;51.036;17.058;2023-04-25T01:46:00;4.63;;;2.50;;
68310;SDS011;55157;51.036;17.058;2023-04-25T01:48:25;5.90;;;2.95;;
68310;SDS011;55157;51.036;17.058;2023-04-25T01:50:50;5.55;;;3.08;;
68310;SDS011;55157;51.036;17.058;2023-04-25T01:53:16;4.30;;;2.90;;
68310;SDS011;55157;51.036;17.058;2023-04-25T01:55:42;5.03;;;3.00;;
68310;SDS011;55157;51.036;17.058;2023-04-25T01:58:08;5.57;;;3.35;;
68310;SDS011;55157;51.036;17.058;2023-04-25T02:00:33;5.80;;;3.20;;
68310;SDS011;55157;51.036;17.058;2023-04-25T02:02:58;4.95;;;3.40;;
68310;SDS011;55157;51.036;17.058;2023-04-25T02:05:23;6.97;;;3.40;;
68310;SDS011;55157;51.036;17.058;2023-04-25T02:07:49;9.15;;;3.47;;
68310;SDS011;55157;51.036;17.058;2023-04-25T02:10:14;5.35;;;3.13;;
68310;SDS011;55157;51.036;17.058;2023-04-25T02:12:41;5.70;;;3.00;;
68310;SDS011;55157;51.036;17.058;2023-04-25T02:15:06;7.90;;;2.92;;
68310;SDS011;55157;51.036;17.058;2023-04-25T02:17:31;4.82;;;4.30;;
68310;SDS011;55157;51.036;17.058;2023-04-25T02:19:57;7.72;;;3.40;;
68310;SDS011;55157;51.036;17.058;2023-04-25T02:22:22;3.97;;;3.00;;
68310;SDS011;55157;51.036;17.058;2023-04-25T02:24:47;3.72;;;3.33;;
68310;SDS011;55157;51.036;17.058;2023-04-25T02:27:12;4.20;;;3.60;;
68310;SDS011;55157;51.036;17.058;2023-04-25T02:29:39;3.92;;;3.45;;
68310;SDS011;55157;51.036;17.058;2023-04-25T02:32:04;7.65;;;3.72;;
68310;SDS011;55157;51.036;17.058;2023-04-25T02:34:30;6.93;;;3.22;;
68310;SDS011;55157;51.036;17.058;2023-04-25T02:36:55;7.82;;;4.38;;
68310;SDS011;55157;51.036;17.058;2023-04-25T02:39:20;5.47;;;3.72;;
68310;SDS011;55157;51.036;17.058;2023-04-25T02:41:45;9.25;;;3.83;;
68310;SDS011;55157;51.036;17.058;2023-04-25T02:44:10;7.40;;;3.95;;
68310;SDS011;55157;51.036;17.058;2023-04-25T02:46:37;9.73;;;4.07;;
68310;SDS011;55157;51.036;17.058;2023-04-25T02:49:02;7.80;;;4.47;;
68310;SDS011;55157;51.036;17.058;2023-04-25T02:51:28;10.35;;;5.28;;
68310;SDS011;55157;51.036;17.058;2023-04-25T02:53:53;4.35;;;3.90;;
68310;SDS011;55157;51.036;17.058;2023-04-25T02:56:18;8.43;;;4.03;;
68310;SDS011;55157;51.036;17.058;2023-04-25T02:58:43;5.90;;;4.40;;
68310;SDS011;55157;51.036;17.058;2023-04-25T03:01:09;12.93;;;4.45;;
68310;SDS011;55157;51.036;17.058;2023-04-25T03:03:35;7.07;;;4.85;;
68310;SDS011;55157;51.036;17.058;2023-04-25T03:06:01;17.45;;;5.20;;
68310;SDS011;55157;51.036;17.058;2023-04-25T03:08:26;7.30;;;4.72;;
68310;SDS011;55157;51.036;17.058;2023-04-25T03:10:51;8.57;;;5.20;;
68310;SDS011;55157;51.036;17.058;2023-04-25T03:13:16;5.72;;;4.70;;
68310;SDS011;55157;51.036;17.058;2023-04-25T03:15:42;6.22;;;4.55;;
68310;SDS011;55157;51.036;17.058;2023-04-25T03:18:07;7.22;;;4.72;;
68310;SDS011;55157;51.036;17.058;2023-04-25T03:20:33;8.30;;;4.50;;
68310;SDS011;55157;51.036;17.058;2023-04-25T03:22:59;7.75;;;4.32;;
68310;SDS011;55157;51.036;17.058;2023-04-25T03:25:24;6.13;;;4.65;;
68310;SDS011;55157;51.036;17.058;2023-04-25T03:27:49;5.68;;;4.50;;
68310;SDS011;55157;51.036;17.058;2023-04-25T03:30:14;8.80;;;4.20;;
68310;SDS011;55157;51.036;17.058;2023-04-25T03:32:40;7.10;;;4.30;;
68310;SDS011;55157;51.036;17.058;2023-04-25T03:35:05;7.03;;;4.28;;
68310;SDS011;55157;51.036;17.058;2023-04-25T03:37:32;7.40;;;4.78;;
68310;SDS011;55157;51.036;17.058;2023-04-25T03:39:57;8.52;;;4.65;;
68310;SDS011;55157;51.036;17.058;2023-04-25T03:42:22;6.13;;;5.13;;
68310;SDS011;55157;51.036;17.058;2023-04-25T03:44:48;6.88;;;4.72;;
68310;SDS011;55157;51.036;17.058;2023-04-25T03:47:13;5.55;;;4.68;;
68310;SDS011;55157;51.036;17.058;2023-04-25T03:49:38;5.70;;;4.97;;
68310;SDS011;55157;51.036;17.058;2023-04-25T03:52:03;6.55;;;4.47;;
68310;SDS011;55157;51.036;17.058;2023-04-25T03:54:30;9.13;;;4.53;;
68310;SDS011;55157;51.036;17.058;2023-04-25T03:56:55;10.75;;;5.22;;
68310;SDS011;55157;51.036;17.058;2023-04-25T03:59:20;7.28;;;5.10;;
68310;SDS011;55157;51.036;17.058;2023-04-25T04:01:46;5.55;;;4.93;;
68310;SDS011;55157;51.036;17.058;2023-04-25T04:04:11;6.07;;;4.68;;
68310;SDS011;55157;51.036;17.058;2023-04-25T04:06:36;9.18;;;5.18;;
68310;SDS011;55157;51.036;17.058;2023-04-25T04:09:01;7.15;;;4.95;;
68310;SDS011;55157;51.036;17.058;2023-04-25T04:11:28;7.20;;;5.25;;
68310;SDS011;55157;51.036;17.058;2023-04-25T04:13:53;10.27;;;5.68;;
68310;SDS011;55157;51.036;17.058;2023-04-25T04:16:19;12.30;;;5.57;;
68310;SDS011;55157;51.036;17.058;2023-04-25T04:18:44;5.07;;;4.57;;
68310;SDS011;55157;51.036;17.058;2023-04-25T04:21:09;6.15;;;4.82;;
68310;SDS011;55157;51.036;17.058;2023-04-25T04:23:35;8.48;;;5.60;;
68310;SDS011;55157;51.036;17.058;2023-04-25T04:26:00;16.50;;;6.05;;
68310;SDS011;55157;51.036;17.058;2023-04-25T04:28:27;8.68;;;5.70;;
68310;SDS011;55157;51.036;17.058;2023-04-25T04:30:52;9.65;;;5.57;;
68310;SDS011;55157;51.036;17.058;2023-04-25T04:33:17;9.48;;;5.38;;
68310;SDS011;55157;51.036;17.058;2023-04-25T04:35:42;7.43;;;5.60;;
68310;SDS011;55157;51.036;17.058;2023-04-25T04:38:08;6.32;;;5.32;;
68310;SDS011;55157;51.036;17.058;2023-04-25T04:40:33;6.32;;;5.47;;
68310;SDS011;55157;51.036;17.058;2023-04-25T04:42:58;8.52;;;5.47;;
68310;SDS011;55157;51.036;17.058;2023-04-25T04:45:25;10.40;;;5.30;;
68310;SDS011;55157;51.036;17.058;2023-04-25T04:47:50;7.88;;;5.18;;
68310;SDS011;55157;51.036;17.058;2023-04-25T04:50:15;10.98;;;5.18;;
68310;SDS011;55157;51.036;17.058;2023-04-25T04:52:41;7.38;;;4.68;;
68310;SDS011;55157;51.036;17.058;2023-04-25T04:55:06;16.77;;;5.95;;
68310;SDS011;55157;51.036;17.058;2023-04-25T04:57:31;8.75;;;5.47;;
68310;SDS011;55157;51.036;17.058;2023-04-25T04:59:57;12.00;;;5.13;;
68310;SDS011;55157;51.036;17.058;2023-04-25T05:02:23;7.97;;;5.38;;
68310;SDS011;55157;51.036;17.058;2023-04-25T05:04:49;11.23;;;6.07;;
68310;SDS011;55157;51.036;17.058;2023-04-25T05:07:14;12.25;;;5.68;;
68310;SDS011;55157;51.036;17.058;2023-04-25T05:09:39;10.73;;;5.68;;
68310;SDS011;55157;51.036;17.058;2023-04-25T05:12:05;8.02;;;5.22;;
68310;SDS011;55157;51.036;17.058;2023-04-25T05:14:30;7.95;;;5.30;;
68310;SDS011;55157;51.036;17.058;2023-04-25T05:16:55;10.77;;;5.60;;
68310;SDS011;55157;51.036;17.058;2023-04-25T05:19:22;14.07;;;5.57;;
68310;SDS011;55157;51.036;17.058;2023-04-25T05:21:47;11.13;;;5.75;;
68310;SDS011;55157;51.036;17.058;2023-04-25T05:24:12;8.13;;;5.50;;
68310;SDS011;55157;51.036;17.058;2023-04-25T05:26:38;10.65;;;4.70;;
68310;SDS011;55157;51.036;17.058;2023-04-25T05:29:03;7.57;;;4.93;;
68310;SDS011;55157;51.036;17.058;2023-04-25T05:31:28;11.40;;;5.20;;
68310;SDS011;55157;51.036;17.058;2023-04-25T05:33:53;8.68;;;4.97;;
68310;SDS011;55157;51.036;17.058;2023-04-25T05:36:20;7.68;;;5.28;;
68310;SDS011;55157;51.036;17.058;2023-04-25T05:38:46;6.60;;;4.53;;
68310;SDS011;55157;51.036;17.058;2023-04-25T05:41:11;10.40;;;5.00;;
68310;SDS011;55157;51.036;17.058;2023-04-25T05:43:36;13.55;;;5.18;;
68310;SDS011;55157;51.036;17.058;2023-04-25T05:46:01;15.10;;;5.43;;
68310;SDS011;55157;51.036;17.058;2023-04-25T05:48:27;10.23;;;5.15;;
68310;SDS011;55157;51.036;17.058;2023-04-25T05:50:52;12.90;;;5.20;;
68310;SDS011;55157;51.036;17.058;2023-04-25T05:53:19;6.80;;;4.15;;
68310;SDS011;55157;51.036;17.058;2023-04-25T05:55:44;9.02;;;4.78;;
68310;SDS011;55157;51.036;17.058;2023-04-25T05:58:09;11.20;;;5.25;;
68310;SDS011;55157;51.036;17.058;2023-04-25T06:00:34;10.77;;;4.90;;
68310;SDS011;55157;51.036;17.058;2023-04-25T06:03:00;9.40;;;5.13;;
68310;SDS011;55157;51.036;17.058;2023-04-25T06:05:25;6.20;;;4.80;;
68310;SDS011;55157;51.036;17.058;2023-04-25T06:07:50;8.80;;;4.97;;
68310;SDS011;55157;51.036;17.058;2023-04-25T06:10:17;6.13;;;4.20;;
68310;SDS011;55157;51.036;17.058;2023-04-25T06:12:42;6.63;;;4.30;;
68310;SDS011;55157;51.036;17.058;2023-04-25T06:15:07;6.35;;;4.30;;
68310;SDS011;55157;51.036;17.058;2023-04-25T06:17:33;12.93;;;5.22;;
68310;SDS011;55157;51.036;17.058;2023-04-25T06:19:58;7.30;;;4.57;;
68310;SDS011;55157;51.036;17.058;2023-04-25T06:22:23;11.27;;;4.20;;
68310;SDS011;55157;51.036;17.058;2023-04-25T06:24:49;6.43;;;3.65;;
68310;SDS011;55157;51.036;17.058;2023-04-25T06:27:15;10.30;;;4.30;;
68310;SDS011;55157;51.036;17.058;2023-04-25T06:29:41;5.78;;;3.95;;
68310;SDS011;55157;51.036;17.058;2023-04-25T06:32:06;10.38;;;4.60;;
68310;SDS011;55157;51.036;17.058;2023-04-25T06:34:31;9.02;;;4.15;;
68310;SDS011;55157;51.036;17.058;2023-04-25T06:36:56;8.77;;;4.03;;
68310;SDS011;55157;51.036;17.058;2023-04-25T06:39:22;8.30;;;4.03;;
68310;SDS011;55157;51.036;17.058;2023-04-25T06:41:47;9.50;;;4.07;;
68310;SDS011;55157;51.036;17.058;2023-04-25T06:44:13;5.88;;;3.03;;
68310;SDS011;55157;51.036;17.058;2023-04-25T06:46:39;5.63;;;2.72;;
68310;SDS011;55157;51.036;17.058;2023-04-25T06:49:04;4.85;;;2.60;;
68310;SDS011;55157;51.036;17.058;2023-04-25T06:51:29;5.93;;;3.15;;
68310;SDS011;55157;51.036;17.058;2023-04-25T06:53:55;9.07;;;3.00;;
68310;SDS011;55157;51.036;17.058;2023-04-25T06:56:20;5.70;;;2.97;;
68310;SDS011;55157;51.036;17.058;2023-04-25T06:58:45;6.30;;;3.05;;
68310;SDS011;55157;51.036;17.058;2023-04-25T07:01:12;4.80;;;2.60;;
68310;SDS011;55157;51.036;17.058;2023-04-25T07:03:37;8.35;;;2.95;;
68310;SDS011;55157;51.036;17.058;2023-04-25T07:06:02;8.93;;;2.92;;
68310;SDS011;55157;51.036;17.058;2023-04-25T07:08:28;5.85;;;2.58;;
68310;SDS011;55157;51.036;17.058;2023-04-25T07:10:53;6.45;;;2.80;;
68310;SDS011;55157;51.036;17.058;2023-04-25T07:13:19;8.63;;;2.85;;
68310;SDS011;55157;51.036;17.058;2023-04-25T07:15:44;9.10;;;3.10;;
68310;SDS011;55157;51.036;17.058;2023-04-25T07:18:11;9.38;;;2.97;;
68310;SDS011;55157;51.036;17.058;2023-04-25T07:20:36;5.65;;;2.38;;
68310;SDS011;55157;51.036;17.058;2023-04-25T07:23:01;10.40;;;2.75;;
68310;SDS011;55157;51.036;17.058;2023-04-25T07:25:26;14.20;;;3.05;;
68310;SDS011;55157;51.036;17.058;2023-04-25T07:27:52;5.88;;;2.80;;
68310;SDS011;55157;51.036;17.058;2023-04-25T07:30:17;13.00;;;2.90;;
68310;SDS011;55157;51.036;17.058;2023-04-25T07:32:42;5.70;;;2.70;;
68310;SDS011;55157;51.036;17.058;2023-04-25T07:35:09;7.82;;;2.50;;
68310;SDS011;55157;51.036;17.058;2023-04-25T07:37:34;8.95;;;3.20;;
68310;SDS011;55157;51.036;17.058;2023-04-25T07:40:00;12.85;;;4.13;;
68310;SDS011;55157;51.036;17.058;2023-04-25T07:42:25;8.07;;;2.97;;
68310;SDS011;55157;51.036;17.058;2023-04-25T07:44:50;6.93;;;2.13;;
68310;SDS011;55157;51.036;17.058;2023-04-25T07:47:16;7.22;;;2.65;;
68310;SDS011;55157;51.036;17.058;2023-04-25T07:49:41;6.40;;;2.70;;
68310;SDS011;55157;51.036;17.058;2023-04-25T07:52:07;13.32;;;3.42;;
68310;SDS011;55157;51.036;17.058;2023-04-25T07:54:34;9.70;;;3.33;;
68310;SDS011;55157;51.036;17.058;2023-04-25T07:56:59;5.53;;;3.10;;
68310;SDS011;55157;51.036;17.058;2023-04-25T07:59:25;6.55;;;3.03;;
68310;SDS011;55157;51.036;17.058;2023-04-25T08:01:50;7.28;;;2.97;;
68310;SDS011;55157;51.036;17.058;2023-04-25T08:04:15;12.13;;;3.63;;
68310;SDS011;55157;51.036;17.058;2023-04-25T08:06:41;7.13;;;3.10;;
68310;SDS011;55157;51.036;17.058;2023-04-25T08:09:07;10.68;;;3.83;;
68310;SDS011;55157;51.036;17.058;2023-04-25T08:11:33;8.77;;;3.70;;
68310;SDS011;55157;51.036;17.058;2023-04-25T08:13:58;8.13;;;3.40;;
68310;SDS011;55157;51.036;17.058;2023-04-25T08:16:23;8.20;;;4.25;;
68310;SDS011;55157;51.036;17.058;2023-04-25T08:18:49;6.60;;;3.42;;
68310;SDS011;55157;51.036;17.058;2023-04-25T08:21:15;6.68;;;3.60;;
68310;SDS011;55157;51.036;17.058;2023-04-25T08:23:40;8.57;;;3.80;;
68310;SDS011;55157;51.036;17.058;2023-04-25T08:26:07;9.73;;;4.28;;
68310;SDS011;55157;51.036;17.058;2023-04-25T08:28:32;11.20;;;4.43;;
68310;SDS011;55157;51.036;17.058;2023-04-25T08:30:58;10.27;;;4.47;;
68310;SDS011;55157;51.036;17.058;2023-04-25T08:33:23;7.47;;;4.60;;
68310;SDS011;55157;51.036;17.058;2023-04-25T08:35:48;11.60;;;4.78;;
68310;SDS011;55157;51.036;17.058;2023-04-25T08:38:13;10.43;;;5.20;;
68310;SDS011;55157;51.036;17.058;2023-04-25T08:40:39;9.27;;;4.65;;
68310;SDS011;55157;51.036;17.058;2023-04-25T08:43:06;9.50;;;4.53;;
68310;SDS011;55157;51.036;17.058;2023-04-25T08:45:31;10.15;;;4.90;;
68310;SDS011;55157;51.036;17.058;2023-04-25T08:47:57;10.18;;;5.53;;
68310;SDS011;55157;51.036;17.058;2023-04-25T08:50:22;10.05;;;6.07;;
68310;SDS011;55157;51.036;17.058;2023-04-25T08:52:47;9.27;;;4.53;;
68310;SDS011;55157;51.036;17.058;2023-04-25T08:55:14;7.70;;;5.10;;
68310;SDS011;55157;51.036;17.058;2023-04-25T08:57:40;9.68;;;5.45;;
68310;SDS011;55157;51.036;17.058;2023-04-25T09:00:08;12.48;;;5.70;;
68310;SDS011;55157;51.036;17.058;2023-04-25T09:02:34;9.48;;;5.38;;
68310;SDS011;55157;51.036;17.058;2023-04-25T09:04:59;9.77;;;3.90;;
68310;SDS011;55157;51.036;17.058;2023-04-25T09:07:24;6.32;;;4.10;;
68310;SDS011;55157;51.036;17.058;2023-04-25T09:09:50;9.77;;;4.18;;
68310;SDS011;55157;51.036;17.058;2023-04-25T09:12:15;15.30;;;5.03;;
68310;SDS011;55157;51.036;17.058;2023-04-25T09:14:41;7.68;;;4.45;;
68310;SDS011;55157;51.036;17.058;2023-04-25T09:17:07;6.72;;;4.13;;
68310;SDS011;55157;51.036;17.058;2023-04-25T09:19:34;10.25;;;4.07;;
68310;SDS011;55157;51.036;17.058;2023-04-25T09:22:01;5.97;;;3.40;;
68310;SDS011;55157;51.036;17.058;2023-04-25T09:24:30;6.60;;;3.38;;
68310;SDS011;55157;51.036;17.058;2023-04-25T09:26:55;8.25;;;3.08;;
68310;SDS011;55157;51.036;17.058;2023-04-25T09:29:20;7.53;;;3.35;;
68310;SDS011;55157;51.036;17.058;2023-04-25T09:31:53;8.55;;;3.10;;
68310;SDS011;55157;51.036;17.058;2023-04-25T09:34:21;6.20;;;3.53;;
68310;SDS011;55157;51.036;17.058;2023-04-25T09:36:50;8.13;;;3.58;;
68310;SDS011;55157;51.036;17.058;2023-04-25T09:39:19;9.98;;;4.30;;
68310;SDS011;55157;51.036;17.058;2023-04-25T09:41:44;6.72;;;2.83;;
68310;SDS011;55157;51.036;17.058;2023-04-25T09:44:09;5.78;;;3.22;;
68310;SDS011;55157;51.036;17.058;2023-04-25T09:46:37;5.53;;;2.70;;
68310;SDS011;55157;51.036;17.058;2023-04-25T09:49:06;12.48;;;4.55;;
68310;SDS011;55157;51.036;17.058;2023-04-25T09:51:32;6.78;;;3.10;;
68310;SDS011;55157;51.036;17.058;2023-04-25T09:53:58;9.73;;;2.83;;
68310;SDS011;55157;51.036;17.058;2023-04-25T09:56:23;8.57;;;2.97;;
68310;SDS011;55157;51.036;17.058;2023-04-25T09:58:49;10.35;;;3.33;;
68310;SDS011;55157;51.036;17.058;2023-04-25T10:01:15;6.70;;;2.95;;
68310;SDS011;55157;51.036;17.058;2023-04-25T10:03:41;14.73;;;3.75;;
68310;SDS011;55157;51.036;17.058;2023-04-25T10:06:07;7.05;;;2.75;;
68310;SDS011;55157;51.036;17.058;2023-04-25T10:08:34;6.82;;;2.80;;
68310;SDS011;55157;51.036;17.058;2023-04-25T10:11:00;7.32;;;3.08;;
68310;SDS011;55157;51.036;17.058;2023-04-25T10:13:25;10.65;;;3.30;;
68310;SDS011;55157;51.036;17.058;2023-04-25T10:15:51;8.25;;;3.17;;
68310;SDS011;55157;51.036;17.058;2023-04-25T10:18:17;6.85;;;3.50;;
68310;SDS011;55157;51.036;17.058;2023-04-25T10:20:42;5.60;;;3.10;;
68310;SDS011;55157;51.036;17.058;2023-04-25T10:23:09;6.20;;;3.00;;
68310;SDS011;55157;51.036;17.058;2023-04-25T10:25:37;6.75;;;3.97;;
68310;SDS011;55157;51.036;17.058;2023-04-25T10:28:03;6.90;;;3.92;;
68310;SDS011;55157;51.036;17.058;2023-04-25T10:30:28;6.82;;;3.92;;
68310;SDS011;55157;51.036;17.058;2023-04-25T10:32:54;7.30;;;3.88;;
68310;SDS011;55157;51.036;17.058;2023-04-25T10:35:23;9.90;;;3.47;;
68310;SDS011;55157;51.036;17.058;2023-04-25T10:37:59;4.65;;;2.92;;
68310;SDS011;55157;51.036;17.058;2023-04-25T10:40:24;6.93;;;3.08;;
68310;SDS011;55157;51.036;17.058;2023-04-25T10:42:52;7.47;;;3.47;;
68310;SDS011;55157;51.036;17.058;2023-04-25T10:45:18;6.85;;;3.00;;
68310;SDS011;55157;51.036;17.058;2023-04-25T10:47:43;9.70;;;2.80;;
68310;SDS011;55157;51.036;17.058;2023-04-25T10:50:09;4.93;;;3.13;;
68310;SDS011;55157;51.036;17.058;2023-04-25T10:52:34;8.77;;;3.42;;
68310;SDS011;55157;51.036;17.058;2023-04-25T10:54:59;6.32;;;3.10;;
68310;SDS011;55157;51.036;17.058;2023-04-25T10:57:31;4.88;;;2.65;;
68310;SDS011;55157;51.036;17.058;2023-04-25T11:00:01;4.70;;;3.15;;
68310;SDS011;55157;51.036;17.058;2023-04-25T11:02:29;4.88;;;2.72;;
68310;SDS011;55157;51.036;17.058;2023-04-25T11:04:55;5.32;;;2.45;;
68310;SDS011;55157;51.036;17.058;2023-04-25T11:07:22;5.32;;;2.78;;
68310;SDS011;55157;51.036;17.058;2023-04-25T11:09:49;6.30;;;2.28;;
68310;SDS011;55157;51.036;17.058;2023-04-25T11:12:14;8.10;;;2.70;;
68310;SDS011;55157;51.036;17.058;2023-04-25T11:14:39;6.75;;;2.85;;
68310;SDS011;55157;51.036;17.058;2023-04-25T11:17:06;9.68;;;2.30;;
68310;SDS011;55157;51.036;17.058;2023-04-25T11:19:31;6.78;;;2.28;;
68310;SDS011;55157;51.036;17.058;2023-04-25T11:21:56;3.60;;;2.40;;
68310;SDS011;55157;51.036;17.058;2023-04-25T11:24:25;6.82;;;1.98;;
68310;SDS011;55157;51.036;17.058;2023-04-25T11:26:50;5.28;;;2.03;;
68310;SDS011;55157;51.036;17.058;2023-04-25T11:29:16;4.60;;;2.33;;
68310;SDS011;55157;51.036;17.058;2023-04-25T11:31:42;10.85;;;2.15;;
68310;SDS011;55157;51.036;17.058;2023-04-25T11:34:10;12.70;;;2.15;;
68310;SDS011;55157;51.036;17.058;2023-04-25T11:36:35;4.68;;;1.65;;
68310;SDS011;55157;51.036;17.058;2023-04-25T11:39:03;6.95;;;2.08;;
68310;SDS011;55157;51.036;17.058;2023-04-25T11:41:28;7.20;;;1.88;;
68310;SDS011;55157;51.036;17.058;2023-04-25T11:43:53;4.47;;;1.60;;
68310;SDS011;55157;51.036;17.058;2023-04-25T11:46:18;5.07;;;2.10;;
68310;SDS011;55157;51.036;17.058;2023-04-25T11:48:44;10.10;;;1.95;;
68310;SDS011;55157;51.036;17.058;2023-04-25T11:51:10;4.90;;;1.80;;
68310;SDS011;55157;51.036;17.058;2023-04-25T11:53:36;9.35;;;1.77;;
68310;SDS011;55157;51.036;17.058;2023-04-25T11:56:01;5.75;;;2.10;;
68310;SDS011;55157;51.036;17.058;2023-04-25T11:58:26;3.42;;;1.70;;
68310;SDS011;55157;51.036;17.058;2023-04-25T12:00:52;5.03;;;1.80;;
68310;SDS011;55157;51.036;17.058;2023-04-25T12:03:17;4.13;;;1.42;;
68310;SDS011;55157;51.036;17.058;2023-04-25T12:05:43;11.50;;;1.52;;
68310;SDS011;55157;51.036;17.058;2023-04-25T12:08:11;9.38;;;1.48;;
68310;SDS011;55157;51.036;17.058;2023-04-25T12:10:37;4.18;;;1.75;;
68310;SDS011;55157;51.036;17.058;2023-04-25T12:13:17;10.70;;;1.60;;
68310;SDS011;55157;51.036;17.058;2023-04-25T12:15:42;5.43;;;1.52;;
68310;SDS011;55157;51.036;17.058;2023-04-25T12:18:07;6.03;;;1.60;;
68310;SDS011;55157;51.036;17.058;2023-04-25T12:20:33;3.63;;;1.27;;
68310;SDS011;55157;51.036;17.058;2023-04-25T12:22:58;5.53;;;1.98;;
68310;SDS011;55157;51.036;17.058;2023-04-25T12:25:37;8.57;;;1.50;;
68310;SDS011;55157;51.036;17.058;2023-04-25T12:28:10;5.28;;;1.52;;
68310;SDS011;55157;51.036;17.058;2023-04-25T12:33:15;8.63;;;2.05;;
68310;SDS011;55157;51.036;17.058;2023-04-25T12:35:40;5.30;;;1.70;;
68310;SDS011;55157;51.036;17.058;2023-04-25T12:38:06;9.27;;;1.88;;
68310;SDS011;55157;51.036;17.058;2023-04-25T12:40:31;4.72;;;1.63;;
68310;SDS011;55157;51.036;17.058;2023-04-25T12:42:58;3.72;;;1.42;;
68310;SDS011;55157;51.036;17.058;2023-04-25T12:45:23;4.25;;;1.38;;
68310;SDS011;55157;51.036;17.058;2023-04-25T12:47:48;6.03;;;1.33;;
68310;SDS011;55157;51.036;17.058;2023-04-25T12:50:13;7.38;;;1.42;;
68310;SDS011;55157;51.036;17.058;2023-04-25T12:52:39;3.20;;;1.40;;
68310;SDS011;55157;51.036;17.058;2023-04-25T12:55:04;6.65;;;1.75;;
68310;SDS011;55157;51.036;17.058;2023-04-25T12:57:30;8.20;;;1.65;;
68310;SDS011;55157;51.036;17.058;2023-04-25T12:59:56;3.63;;;1.60;;
68310;SDS011;55157;51.036;17.058;2023-04-25T13:02:23;5.78;;;1.65;;
68310;SDS011;55157;51.036;17.058;2023-04-25T13:04:48;3.60;;;1.40;;
68310;SDS011;55157;51.036;17.058;2023-04-25T13:07:13;4.25;;;1.42;;
68310;SDS011;55157;51.036;17.058;2023-04-25T13:09:39;5.60;;;1.30;;
68310;SDS011;55157;51.036;17.058;2023-04-25T13:12:04;5.55;;;1.35;;
68310;SDS011;55157;51.036;17.058;2023-04-25T13:14:29;10.77;;;1.52;;
68310;SDS011;55157;51.036;17.058;2023-04-25T13:16:56;6.40;;;1.52;;
68310;SDS011;55157;51.036;17.058;2023-04-25T13:19:21;2.70;;;1.25;;
68310;SDS011;55157;51.036;17.058;2023-04-25T13:21:46;4.30;;;1.10;;
68310;SDS011;55157;51.036;17.058;2023-04-25T13:24:12;5.25;;;1.52;;
68310;SDS011;55157;51.036;17.058;2023-04-25T13:26:37;5.22;;;1.20;;
68310;SDS011;55157;51.036;17.058;2023-04-25T13:29:02;10.98;;;1.67;;
68310;SDS011;55157;51.036;17.058;2023-04-25T13:31:27;3.25;;;1.40;;
68310;SDS011;55157;51.036;17.058;2023-04-25T13:33:54;3.05;;;1.38;;
68310;SDS011;55157;51.036;17.058;2023-04-25T13:36:19;5.05;;;1.48;;
68310;SDS011;55157;51.036;17.058;2023-04-25T13:38:45;4.10;;;1.40;;
68310;SDS011;55157;51.036;17.058;2023-04-25T13:41:10;19.95;;;1.70;;
68310;SDS011;55157;51.036;17.058;2023-04-25T13:43:35;5.15;;;1.65;;
68310;SDS011;55157;51.036;17.058;2023-04-25T13:46:00;3.13;;;1.58;;
68310;SDS011;55157;51.036;17.058;2023-04-25T13:48:26;4.28;;;1.20;;
68310;SDS011;55157;51.036;17.058;2023-04-25T13:50:52;3.53;;;1.20;;
68310;SDS011;55157;51.036;17.058;2023-04-25T13:53:18;6.40;;;1.55;;
68310;SDS011;55157;51.036;17.058;2023-04-25T13:55:43;6.28;;;1.20;;
68310;SDS011;55157;51.036;17.058;2023-04-25T13:58:08;2.60;;;1.27;;
68310;SDS011;55157;51.036;17.058;2023-04-25T14:00:34;12.10;;;1.70;;
68310;SDS011;55157;51.036;17.058;2023-04-25T14:02:59;8.65;;;1.30;;
68310;SDS011;55157;51.036;17.058;2023-04-25T14:05:25;8.15;;;1.90;;
68310;SDS011;55157;51.036;17.058;2023-04-25T14:07:51;5.78;;;1.30;;
68310;SDS011;55157;51.036;17.058;2023-04-25T14:10:17;9.07;;;1.40;;
68310;SDS011;55157;51.036;17.058;2023-04-25T14:12:42;5.38;;;1.70;;
68310;SDS011;55157;51.036;17.058;2023-04-25T14:15:07;5.10;;;1.35;;
68310;SDS011;55157;51.036;17.058;2023-04-25T14:17:32;4.55;;;1.73;;
68310;SDS011;55157;51.036;17.058;2023-04-25T14:19:58;4.05;;;1.52;;
68310;SDS011;55157;51.036;17.058;2023-04-25T14:22:23;3.90;;;1.83;;
68310;SDS011;55157;51.036;17.058;2023-04-25T14:24:50;5.30;;;1.83;;
68310;SDS011;55157;51.036;17.058;2023-04-25T14:27:15;12.90;;;1.75;;